sensor_id;sensor_type;location;lat;lon;timestamp;P1;durP1;ratioP1;P2;durP2;ratioP2
63606;SDS011;71992;52.478;-1.918;2024-02-21T00:00:18;2.30;;;1.00;;
63606;SDS011;71992;52.478;-1.918;2024-02-21T00:03:07;2.75;;;1.27;;
63606;SDS011;71992;52.478;-1.918;2024-02-21T00:05:37;2.67;;;1.42;;
63606;SDS011;71992;52.478;-1.918;2024-02-21T00:08:26;4.55;;;0.95;;
63606;SDS011;71992;52.478;-1.918;2024-02-21T00:11:15;3.00;;;0.93;;
63606;SDS011;71992;52.478;-1.918;2024-02-21T00:13:47;2.05;;;1.00;;
63606;SDS011;71992;52.478;-1.918;2024-02-21T00:16:17;3.15;;;1.10;;
63606;SDS011;71992;52.478;-1.918;2024-02-21T00:19:06;2.95;;;0.93;;
63606;SDS011;71992;52.478;-1.918;2024-02-21T00:21:55;2.53;;;1.00;;
63606;SDS011;71992;52.478;-1.918;2024-02-21T00:24:46;2.72;;;1.10;;
63606;SDS011;71992;52.478;-1.918;2024-02-21T00:27:35;4.28;;;1.13;;
63606;SDS011;71992;52.478;-1.918;2024-02-21T00:30:27;2.67;;;0.93;;
63606;SDS011;71992;52.478;-1.918;2024-02-21T00:32:56;2.22;;;0.80;;
63606;SDS011;71992;52.478;-1.918;2024-02-21T00:35:48;4.15;;;1.17;;
63606;SDS011;71992;52.478;-1.918;2024-02-21T00:38:38;4.10;;;1.13;;
63606;SDS011;71992;52.478;-1.918;2024-02-21T00:41:07;2.90;;;1.00;;
63606;SDS011;71992;52.478;-1.918;2024-02-21T00:43:56;3.75;;;1.10;;
63606;SDS011;71992;52.478;-1.918;2024-02-21T00:46:28;1.80;;;1.10;;
63606;SDS011;71992;52.478;-1.918;2024-02-21T00:49:17;2.15;;;0.77;;
63606;SDS011;71992;52.478;-1.918;2024-02-21T00:52:07;2.15;;;1.00;;
63606;SDS011;71992;52.478;-1.918;2024-02-21T00:54:37;3.78;;;1.20;;
63606;SDS011;71992;52.478;-1.918;2024-02-21T00:57:26;1.95;;;1.45;;
63606;SDS011;71992;52.478;-1.918;2024-02-21T01:00:16;2.88;;;1.20;;
63606;SDS011;71992;52.478;-1.918;2024-02-21T01:02:48;4.10;;;1.05;;
63606;SDS011;71992;52.478;-1.918;2024-02-21T01:05:38;2.05;;;1.20;;
63606;SDS011;71992;52.478;-1.918;2024-02-21T01:08:27;3.78;;;1.15;;
63606;SDS011;71992;52.478;-1.918;2024-02-21T01:11:16;2.33;;;1.00;;
63606;SDS011;71992;52.478;-1.918;2024-02-21T01:13:46;1.70;;;1.10;;
63606;SDS011;71992;52.478;-1.918;2024-02-21T01:16:35;2.42;;;1.08;;
63606;SDS011;71992;52.478;-1.918;2024-02-21T01:19:27;2.65;;;1.20;;
63606;SDS011;71992;52.478;-1.918;2024-02-21T01:21:57;1.50;;;1.10;;
63606;SDS011;71992;52.478;-1.918;2024-02-21T01:24:26;4.25;;;1.45;;
63606;SDS011;71992;52.478;-1.918;2024-02-21T01:27:15;1.98;;;1.02;;
63606;SDS011;71992;52.478;-1.918;2024-02-21T01:30:05;4.18;;;1.30;;
63606;SDS011;71992;52.478;-1.918;2024-02-21T01:32:56;3.45;;;1.15;;
63606;SDS011;71992;52.478;-1.918;2024-02-21T01:35:48;3.85;;;1.30;;
63606;SDS011;71992;52.478;-1.918;2024-02-21T01:38:38;2.30;;;1.25;;
63606;SDS011;71992;52.478;-1.918;2024-02-21T01:41:29;1.58;;;1.17;;
63606;SDS011;71992;52.478;-1.918;2024-02-21T01:43:58;2.95;;;1.30;;
63606;SDS011;71992;52.478;-1.918;2024-02-21T01:46:48;3.47;;;1.38;;
63606;SDS011;71992;52.478;-1.918;2024-02-21T01:49:38;2.72;;;1.00;;
63606;SDS011;71992;52.478;-1.918;2024-02-21T01:52:30;2.78;;;1.13;;
63606;SDS011;71992;52.478;-1.918;2024-02-21T01:55:20;2.43;;;1.10;;
63606;SDS011;71992;52.478;-1.918;2024-02-21T01:57:50;2.08;;;1.10;;
63606;SDS011;71992;52.478;-1.918;2024-02-21T02:00:39;3.22;;;1.38;;
63606;SDS011;71992;52.478;-1.918;2024-02-21T02:03:31;3.08;;;1.23;;
63606;SDS011;71992;52.478;-1.918;2024-02-21T02:06:00;2.17;;;1.05;;
63606;SDS011;71992;52.478;-1.918;2024-02-21T02:08:52;2.40;;;1.67;;
63606;SDS011;71992;52.478;-1.918;2024-02-21T02:11:42;3.63;;;1.50;;
63606;SDS011;71992;52.478;-1.918;2024-02-21T02:14:32;3.10;;;1.10;;
63606;SDS011;71992;52.478;-1.918;2024-02-21T02:17:22;4.78;;;0.95;;
63606;SDS011;71992;52.478;-1.918;2024-02-21T02:20:11;1.90;;;1.10;;
63606;SDS011;71992;52.478;-1.918;2024-02-21T02:23:03;1.20;;;0.80;;
63606;SDS011;71992;52.478;-1.918;2024-02-21T02:25:39;2.50;;;0.77;;
63606;SDS011;71992;52.478;-1.918;2024-02-21T02:28:29;1.73;;;0.70;;
63606;SDS011;71992;52.478;-1.918;2024-02-21T02:31:18;0.95;;;0.70;;
63606;SDS011;71992;52.478;-1.918;2024-02-21T02:33:48;0.75;;;0.50;;
63606;SDS011;71992;52.478;-1.918;2024-02-21T02:36:37;1.48;;;0.60;;
63606;SDS011;71992;52.478;-1.918;2024-02-21T02:39:27;1.17;;;0.60;;
63606;SDS011;71992;52.478;-1.918;2024-02-21T02:42:18;0.73;;;0.50;;
63606;SDS011;71992;52.478;-1.918;2024-02-21T02:44:48;0.40;;;0.40;;
63606;SDS011;71992;52.478;-1.918;2024-02-21T02:47:38;1.35;;;0.70;;
63606;SDS011;71992;52.478;-1.918;2024-02-21T02:50:28;1.05;;;0.82;;
63606;SDS011;71992;52.478;-1.918;2024-02-21T02:53:18;0.50;;;0.30;;
63606;SDS011;71992;52.478;-1.918;2024-02-21T02:56:07;1.55;;;0.50;;
63606;SDS011;71992;52.478;-1.918;2024-02-21T02:58:45;0.32;;;0.32;;
63606;SDS011;71992;52.478;-1.918;2024-02-21T03:01:35;0.68;;;0.60;;
63606;SDS011;71992;52.478;-1.918;2024-02-21T03:04:24;1.55;;;0.70;;
63606;SDS011;71992;52.478;-1.918;2024-02-21T03:07:13;0.88;;;0.30;;
63606;SDS011;71992;52.478;-1.918;2024-02-21T03:10:03;1.48;;;0.50;;
63606;SDS011;71992;52.478;-1.918;2024-02-21T03:12:54;1.85;;;0.55;;
63606;SDS011;71992;52.478;-1.918;2024-02-21T03:15:47;1.17;;;0.55;;
63606;SDS011;71992;52.478;-1.918;2024-02-21T03:18:36;0.93;;;0.40;;
63606;SDS011;71992;52.478;-1.918;2024-02-21T03:21:25;0.50;;;0.40;;
63606;SDS011;71992;52.478;-1.918;2024-02-21T03:24:15;0.85;;;0.50;;
63606;SDS011;71992;52.478;-1.918;2024-02-21T03:27:04;0.45;;;0.45;;
63606;SDS011;71992;52.478;-1.918;2024-02-21T03:29:54;1.13;;;0.50;;
63606;SDS011;71992;52.478;-1.918;2024-02-21T03:32:46;0.70;;;0.40;;
63606;SDS011;71992;52.478;-1.918;2024-02-21T03:35:36;0.50;;;0.40;;
63606;SDS011;71992;52.478;-1.918;2024-02-21T03:38:05;0.73;;;0.50;;
63606;SDS011;71992;52.478;-1.918;2024-02-21T03:40:54;0.60;;;0.40;;
63606;SDS011;71992;52.478;-1.918;2024-02-21T03:43:44;0.40;;;0.40;;
63606;SDS011;71992;52.478;-1.918;2024-02-21T03:46:34;0.93;;;0.40;;
63606;SDS011;71992;52.478;-1.918;2024-02-21T03:49:26;2.03;;;0.50;;
63606;SDS011;71992;52.478;-1.918;2024-02-21T03:51:55;1.40;;;0.50;;
63606;SDS011;71992;52.478;-1.918;2024-02-21T03:54:44;0.95;;;0.50;;
63606;SDS011;71992;52.478;-1.918;2024-02-21T03:57:34;0.50;;;0.40;;
63606;SDS011;71992;52.478;-1.918;2024-02-21T04:00:07;0.40;;;0.40;;
63606;SDS011;71992;52.478;-1.918;2024-02-21T04:02:59;1.13;;;0.50;;
63606;SDS011;71992;52.478;-1.918;2024-02-21T04:05:51;0.50;;;0.45;;
63606;SDS011;71992;52.478;-1.918;2024-02-21T04:08:40;0.73;;;0.50;;
63606;SDS011;71992;52.478;-1.918;2024-02-21T04:11:30;1.55;;;0.50;;
63606;SDS011;71992;52.478;-1.918;2024-02-21T04:14:19;0.50;;;0.50;;
63606;SDS011;71992;52.478;-1.918;2024-02-21T04:16:48;0.98;;;0.82;;
63606;SDS011;71992;52.478;-1.918;2024-02-21T04:19:18;1.35;;;0.60;;
63606;SDS011;71992;52.478;-1.918;2024-02-21T04:21:49;1.73;;;0.60;;
63606;SDS011;71992;52.478;-1.918;2024-02-21T04:24:39;1.50;;;0.80;;
63606;SDS011;71992;52.478;-1.918;2024-02-21T04:27:28;1.63;;;0.93;;
63606;SDS011;71992;52.478;-1.918;2024-02-21T04:30:17;2.47;;;0.70;;
63606;SDS011;71992;52.478;-1.918;2024-02-21T04:33:07;1.58;;;0.75;;
63606;SDS011;71992;52.478;-1.918;2024-02-21T04:35:58;2.13;;;0.80;;
63606;SDS011;71992;52.478;-1.918;2024-02-21T04:38:30;1.95;;;0.90;;
63606;SDS011;71992;52.478;-1.918;2024-02-21T04:41:00;1.13;;;0.80;;
63606;SDS011;71992;52.478;-1.918;2024-02-21T04:43:30;1.85;;;0.73;;
63606;SDS011;71992;52.478;-1.918;2024-02-21T04:45:59;1.38;;;0.80;;
63606;SDS011;71992;52.478;-1.918;2024-02-21T04:48:48;2.97;;;0.80;;
63606;SDS011;71992;52.478;-1.918;2024-02-21T04:51:37;1.65;;;0.85;;
63606;SDS011;71992;52.478;-1.918;2024-02-21T04:54:32;2.90;;;1.00;;
63606;SDS011;71992;52.478;-1.918;2024-02-21T04:57:21;1.45;;;0.70;;
63606;SDS011;71992;52.478;-1.918;2024-02-21T05:00:11;1.40;;;0.95;;
63606;SDS011;71992;52.478;-1.918;2024-02-21T05:03:01;1.55;;;1.00;;
63606;SDS011;71992;52.478;-1.918;2024-02-21T05:05:51;1.15;;;0.80;;
63606;SDS011;71992;52.478;-1.918;2024-02-21T05:08:20;2.03;;;0.70;;
63606;SDS011;71992;52.478;-1.918;2024-02-21T05:11:14;3.80;;;1.02;;
63606;SDS011;71992;52.478;-1.918;2024-02-21T05:13:43;2.25;;;0.82;;
63606;SDS011;71992;52.478;-1.918;2024-02-21T05:16:33;2.80;;;1.10;;
63606;SDS011;71992;52.478;-1.918;2024-02-21T05:19:02;1.65;;;0.70;;
63606;SDS011;71992;52.478;-1.918;2024-02-21T05:21:52;1.40;;;0.80;;
63606;SDS011;71992;52.478;-1.918;2024-02-21T05:24:21;1.60;;;0.57;;
63606;SDS011;71992;52.478;-1.918;2024-02-21T05:27:13;3.00;;;0.77;;
63606;SDS011;71992;52.478;-1.918;2024-02-21T05:30:05;0.80;;;0.65;;
63606;SDS011;71992;52.478;-1.918;2024-02-21T05:32:56;2.53;;;0.80;;
63606;SDS011;71992;52.478;-1.918;2024-02-21T05:35:45;1.58;;;0.68;;
63606;SDS011;71992;52.478;-1.918;2024-02-21T05:38:34;1.48;;;1.23;;
63606;SDS011;71992;52.478;-1.918;2024-02-21T05:41:04;1.70;;;0.80;;
63606;SDS011;71992;52.478;-1.918;2024-02-21T05:43:37;1.80;;;1.00;;
63606;SDS011;71992;52.478;-1.918;2024-02-21T05:46:26;3.15;;;0.60;;
63606;SDS011;71992;52.478;-1.918;2024-02-21T05:48:56;1.35;;;1.25;;
63606;SDS011;71992;52.478;-1.918;2024-02-21T05:51:46;1.13;;;0.70;;
63606;SDS011;71992;52.478;-1.918;2024-02-21T05:54:15;1.80;;;0.80;;
63606;SDS011;71992;52.478;-1.918;2024-02-21T05:57:05;0.75;;;0.70;;
63606;SDS011;71992;52.478;-1.918;2024-02-21T05:59:57;1.20;;;0.70;;
63606;SDS011;71992;52.478;-1.918;2024-02-21T06:02:26;3.15;;;0.75;;
63606;SDS011;71992;52.478;-1.918;2024-02-21T06:05:16;1.42;;;0.80;;
63606;SDS011;71992;52.478;-1.918;2024-02-21T06:08:06;2.40;;;0.80;;
63606;SDS011;71992;52.478;-1.918;2024-02-21T06:10:35;2.50;;;0.82;;
63606;SDS011;71992;52.478;-1.918;2024-02-21T06:13:25;1.23;;;0.75;;
63606;SDS011;71992;52.478;-1.918;2024-02-21T06:16:16;1.67;;;0.70;;
63606;SDS011;71992;52.478;-1.918;2024-02-21T06:19:06;1.38;;;0.93;;
63606;SDS011;71992;52.478;-1.918;2024-02-21T06:21:55;0.90;;;0.80;;
63606;SDS011;71992;52.478;-1.918;2024-02-21T06:24:44;1.00;;;0.70;;
63606;SDS011;71992;52.478;-1.918;2024-02-21T06:27:34;1.63;;;0.75;;
63606;SDS011;71992;52.478;-1.918;2024-02-21T06:30:23;1.98;;;0.70;;
63606;SDS011;71992;52.478;-1.918;2024-02-21T06:33:15;0.60;;;0.60;;
63606;SDS011;71992;52.478;-1.918;2024-02-21T06:36:08;2.33;;;0.73;;
63606;SDS011;71992;52.478;-1.918;2024-02-21T06:39:00;3.45;;;0.80;;
63606;SDS011;71992;52.478;-1.918;2024-02-21T06:41:53;3.42;;;0.90;;
63606;SDS011;71992;52.478;-1.918;2024-02-21T06:44:43;2.03;;;0.88;;
63606;SDS011;71992;52.478;-1.918;2024-02-21T06:47:13;0.93;;;0.70;;
63606;SDS011;71992;52.478;-1.918;2024-02-21T06:50:05;1.48;;;0.63;;
63606;SDS011;71992;52.478;-1.918;2024-02-21T06:52:55;0.70;;;0.65;;
63606;SDS011;71992;52.478;-1.918;2024-02-21T06:55:44;1.63;;;0.70;;
63606;SDS011;71992;52.478;-1.918;2024-02-21T06:58:34;0.95;;;0.70;;
63606;SDS011;71992;52.478;-1.918;2024-02-21T07:01:23;1.38;;;0.70;;
63606;SDS011;71992;52.478;-1.918;2024-02-21T07:04:12;2.72;;;0.90;;
63606;SDS011;71992;52.478;-1.918;2024-02-21T07:07:04;2.63;;;0.80;;
63606;SDS011;71992;52.478;-1.918;2024-02-21T07:09:54;2.65;;;0.80;;
63606;SDS011;71992;52.478;-1.918;2024-02-21T07:12:43;2.72;;;0.70;;
63606;SDS011;71992;52.478;-1.918;2024-02-21T07:15:32;1.60;;;0.60;;
63606;SDS011;71992;52.478;-1.918;2024-02-21T07:18:02;1.15;;;0.63;;
63606;SDS011;71992;52.478;-1.918;2024-02-21T07:20:32;2.25;;;0.70;;
63606;SDS011;71992;52.478;-1.918;2024-02-21T07:23:25;1.33;;;0.60;;
63606;SDS011;71992;52.478;-1.918;2024-02-21T07:26:15;1.25;;;0.98;;
63606;SDS011;71992;52.478;-1.918;2024-02-21T07:29:04;2.30;;;0.70;;
63606;SDS011;71992;52.478;-1.918;2024-02-21T07:31:53;1.80;;;0.70;;
63606;SDS011;71992;52.478;-1.918;2024-02-21T07:34:43;0.60;;;0.50;;
63606;SDS011;71992;52.478;-1.918;2024-02-21T07:37:32;0.65;;;0.60;;
63606;SDS011;71992;52.478;-1.918;2024-02-21T07:40:24;1.05;;;0.60;;
63606;SDS011;71992;52.478;-1.918;2024-02-21T07:43:14;0.68;;;0.43;;
63606;SDS011;71992;52.478;-1.918;2024-02-21T07:46:03;0.90;;;0.55;;
63606;SDS011;71992;52.478;-1.918;2024-02-21T07:48:52;0.50;;;0.50;;
63606;SDS011;71992;52.478;-1.918;2024-02-21T07:51:42;1.42;;;0.50;;
63606;SDS011;71992;52.478;-1.918;2024-02-21T07:54:11;1.58;;;0.60;;
63606;SDS011;71992;52.478;-1.918;2024-02-21T07:56:43;1.02;;;0.60;;
63606;SDS011;71992;52.478;-1.918;2024-02-21T07:59:33;1.33;;;0.40;;
63606;SDS011;71992;52.478;-1.918;2024-02-21T08:02:22;0.90;;;0.47;;
63606;SDS011;71992;52.478;-1.918;2024-02-21T08:05:12;0.57;;;0.45;;
63606;SDS011;71992;52.478;-1.918;2024-02-21T08:08:01;1.42;;;0.45;;
63606;SDS011;71992;52.478;-1.918;2024-02-21T08:10:51;2.13;;;0.65;;
63606;SDS011;71992;52.478;-1.918;2024-02-21T08:13:44;0.70;;;0.60;;
63606;SDS011;71992;52.478;-1.918;2024-02-21T08:16:13;0.50;;;0.50;;
63606;SDS011;71992;52.478;-1.918;2024-02-21T08:19:03;1.63;;;0.60;;
63606;SDS011;71992;52.478;-1.918;2024-02-21T08:21:52;0.47;;;0.43;;
63606;SDS011;71992;52.478;-1.918;2024-02-21T08:24:42;1.58;;;0.43;;
63606;SDS011;71992;52.478;-1.918;2024-02-21T08:27:31;0.85;;;0.50;;
63606;SDS011;71992;52.478;-1.918;2024-02-21T08:30:03;0.77;;;0.40;;
63606;SDS011;71992;52.478;-1.918;2024-02-21T08:32:55;0.95;;;0.40;;
63606;SDS011;71992;52.478;-1.918;2024-02-21T08:35:24;0.50;;;0.50;;
63606;SDS011;71992;52.478;-1.918;2024-02-21T08:38:13;2.00;;;1.00;;
63606;SDS011;71992;52.478;-1.918;2024-02-21T08:40:43;0.85;;;0.40;;
63606;SDS011;71992;52.478;-1.918;2024-02-21T08:43:12;0.80;;;0.40;;
63606;SDS011;71992;52.478;-1.918;2024-02-21T08:46:04;0.52;;;0.52;;
63606;SDS011;71992;52.478;-1.918;2024-02-21T08:48:54;1.27;;;0.60;;
63606;SDS011;71992;52.478;-1.918;2024-02-21T08:51:23;1.38;;;0.50;;
63606;SDS011;71992;52.478;-1.918;2024-02-21T08:54:13;0.40;;;0.40;;
63606;SDS011;71992;52.478;-1.918;2024-02-21T08:57:03;0.50;;;0.35;;
63606;SDS011;71992;52.478;-1.918;2024-02-21T08:59:54;0.32;;;0.32;;
63606;SDS011;71992;52.478;-1.918;2024-02-21T09:02:26;0.30;;;0.30;;
63606;SDS011;71992;52.478;-1.918;2024-02-21T09:05:15;0.52;;;0.40;;
63606;SDS011;71992;52.478;-1.918;2024-02-21T09:07:44;0.30;;;0.30;;
63606;SDS011;71992;52.478;-1.918;2024-02-21T09:10:34;0.73;;;0.40;;
63606;SDS011;71992;52.478;-1.918;2024-02-21T09:13:03;0.60;;;0.50;;
63606;SDS011;71992;52.478;-1.918;2024-02-21T09:15:33;2.38;;;0.80;;
63606;SDS011;71992;52.478;-1.918;2024-02-21T09:18:06;1.15;;;0.40;;
63606;SDS011;71992;52.478;-1.918;2024-02-21T09:20:35;1.17;;;0.40;;
63606;SDS011;71992;52.478;-1.918;2024-02-21T09:23:05;0.40;;;0.40;;
63606;SDS011;71992;52.478;-1.918;2024-02-21T09:25:56;2.10;;;0.60;;
63606;SDS011;71992;52.478;-1.918;2024-02-21T09:28:46;1.98;;;0.40;;
63606;SDS011;71992;52.478;-1.918;2024-02-21T09:31:35;0.52;;;0.47;;
63606;SDS011;71992;52.478;-1.918;2024-02-21T09:34:27;0.40;;;0.40;;
63606;SDS011;71992;52.478;-1.918;2024-02-21T09:36:57;0.98;;;0.50;;
63606;SDS011;71992;52.478;-1.918;2024-02-21T09:39:46;0.82;;;0.47;;
63606;SDS011;71992;52.478;-1.918;2024-02-21T09:42:38;1.95;;;0.50;;
63606;SDS011;71992;52.478;-1.918;2024-02-21T09:45:12;0.60;;;0.40;;
63606;SDS011;71992;52.478;-1.918;2024-02-21T09:48:25;0.30;;;0.30;;
63606;SDS011;71992;52.478;-1.918;2024-02-21T09:51:25;0.40;;;0.40;;
63606;SDS011;71992;52.478;-1.918;2024-02-21T09:53:59;0.38;;;0.32;;
63606;SDS011;71992;52.478;-1.918;2024-02-21T09:56:49;0.85;;;0.40;;
63606;SDS011;71992;52.478;-1.918;2024-02-21T09:59:19;0.85;;;0.50;;
63606;SDS011;71992;52.478;-1.918;2024-02-21T10:01:49;0.40;;;0.30;;
63606;SDS011;71992;52.478;-1.918;2024-02-21T10:04:19;0.63;;;0.40;;
63606;SDS011;71992;52.478;-1.918;2024-02-21T10:07:12;0.68;;;0.47;;
63606;SDS011;71992;52.478;-1.918;2024-02-21T10:10:01;0.38;;;0.30;;
63606;SDS011;71992;52.478;-1.918;2024-02-21T10:12:51;0.47;;;0.40;;
63606;SDS011;71992;52.478;-1.918;2024-02-21T10:15:41;0.63;;;0.50;;
63606;SDS011;71992;52.478;-1.918;2024-02-21T10:18:35;0.55;;;0.40;;
63606;SDS011;71992;52.478;-1.918;2024-02-21T10:21:25;0.82;;;0.40;;
63606;SDS011;71992;52.478;-1.918;2024-02-21T10:24:25;0.65;;;0.40;;
63606;SDS011;71992;52.478;-1.918;2024-02-21T10:27:16;1.08;;;0.32;;
63606;SDS011;71992;52.478;-1.918;2024-02-21T10:30:12;0.63;;;0.57;;
63606;SDS011;71992;52.478;-1.918;2024-02-21T10:33:03;0.38;;;0.38;;
63606;SDS011;71992;52.478;-1.918;2024-02-21T10:35:54;1.63;;;0.45;;
63606;SDS011;71992;52.478;-1.918;2024-02-21T10:38:54;0.50;;;0.40;;
63606;SDS011;71992;52.478;-1.918;2024-02-21T10:41:46;0.40;;;0.40;;
63606;SDS011;71992;52.478;-1.918;2024-02-21T10:44:36;1.20;;;0.55;;
63606;SDS011;71992;52.478;-1.918;2024-02-21T10:47:27;0.45;;;0.30;;
63606;SDS011;71992;52.478;-1.918;2024-02-21T10:50:03;0.25;;;0.25;;
63606;SDS011;71992;52.478;-1.918;2024-02-21T10:52:56;0.70;;;0.50;;
63606;SDS011;71992;52.478;-1.918;2024-02-21T10:55:37;0.30;;;0.30;;
63606;SDS011;71992;52.478;-1.918;2024-02-21T10:58:12;0.30;;;0.30;;
63606;SDS011;71992;52.478;-1.918;2024-02-21T11:01:04;0.32;;;0.30;;
63606;SDS011;71992;52.478;-1.918;2024-02-21T11:03:55;1.00;;;0.47;;
63606;SDS011;71992;52.478;-1.918;2024-02-21T11:06:26;0.32;;;0.30;;
63606;SDS011;71992;52.478;-1.918;2024-02-21T11:09:16;1.08;;;0.40;;
63606;SDS011;71992;52.478;-1.918;2024-02-21T11:12:06;0.32;;;0.30;;
63606;SDS011;71992;52.478;-1.918;2024-02-21T11:15:07;0.43;;;0.40;;
63606;SDS011;71992;52.478;-1.918;2024-02-21T11:17:59;0.40;;;0.40;;
63606;SDS011;71992;52.478;-1.918;2024-02-21T11:20:49;0.30;;;0.30;;
63606;SDS011;71992;52.478;-1.918;2024-02-21T11:23:24;0.77;;;0.43;;
63606;SDS011;71992;52.478;-1.918;2024-02-21T11:26:03;0.95;;;0.47;;
63606;SDS011;71992;52.478;-1.918;2024-02-21T11:28:34;0.73;;;0.35;;
63606;SDS011;71992;52.478;-1.918;2024-02-21T11:31:26;0.60;;;0.30;;
63606;SDS011;71992;52.478;-1.918;2024-02-21T11:33:56;0.70;;;0.40;;
63606;SDS011;71992;52.478;-1.918;2024-02-21T11:36:47;0.63;;;0.40;;
63606;SDS011;71992;52.478;-1.918;2024-02-21T11:39:37;0.30;;;0.30;;
63606;SDS011;71992;52.478;-1.918;2024-02-21T11:42:27;0.43;;;0.30;;
63606;SDS011;71992;52.478;-1.918;2024-02-21T11:45:17;0.75;;;0.30;;
63606;SDS011;71992;52.478;-1.918;2024-02-21T11:47:50;0.30;;;0.30;;
63606;SDS011;71992;52.478;-1.918;2024-02-21T11:50:21;0.77;;;0.30;;
63606;SDS011;71992;52.478;-1.918;2024-02-21T11:53:10;0.70;;;0.50;;
63606;SDS011;71992;52.478;-1.918;2024-02-21T11:55:40;0.30;;;0.30;;
63606;SDS011;71992;52.478;-1.918;2024-02-21T11:58:30;0.30;;;0.30;;
63606;SDS011;71992;52.478;-1.918;2024-02-21T12:01:19;1.25;;;0.43;;
63606;SDS011;71992;52.478;-1.918;2024-02-21T12:04:12;9.68;;;5.28;;
63606;SDS011;71992;52.478;-1.918;2024-02-21T12:07:03;38.53;;;18.27;;
63606;SDS011;71992;52.478;-1.918;2024-02-21T12:09:53;37.42;;;18.05;;
63606;SDS011;71992;52.478;-1.918;2024-02-21T12:12:22;42.20;;;20.98;;
63606;SDS011;71992;52.478;-1.918;2024-02-21T12:15:14;42.22;;;18.13;;
63606;SDS011;71992;52.478;-1.918;2024-02-21T12:18:03;27.05;;;14.68;;
63606;SDS011;71992;52.478;-1.918;2024-02-21T12:20:56;31.75;;;15.20;;
63606;SDS011;71992;52.478;-1.918;2024-02-21T12:23:47;22.77;;;11.48;;
63606;SDS011;71992;52.478;-1.918;2024-02-21T12:26:36;17.48;;;9.25;;
63606;SDS011;71992;52.478;-1.918;2024-02-21T12:29:26;17.77;;;9.27;;
63606;SDS011;71992;52.478;-1.918;2024-02-21T12:31:56;17.05;;;7.80;;
63606;SDS011;71992;52.478;-1.918;2024-02-21T12:34:25;11.75;;;6.10;;
63606;SDS011;71992;52.478;-1.918;2024-02-21T12:37:21;10.30;;;5.85;;
63606;SDS011;71992;52.478;-1.918;2024-02-21T12:39:50;11.55;;;5.07;;
63606;SDS011;71992;52.478;-1.918;2024-02-21T12:42:40;7.05;;;3.75;;
63606;SDS011;71992;52.478;-1.918;2024-02-21T12:45:29;8.85;;;3.05;;
63606;SDS011;71992;52.478;-1.918;2024-02-21T12:48:20;8.45;;;3.45;;
63606;SDS011;71992;52.478;-1.918;2024-02-21T12:51:09;5.40;;;2.85;;
63606;SDS011;71992;52.478;-1.918;2024-02-21T12:54:01;3.30;;;1.92;;
63606;SDS011;71992;52.478;-1.918;2024-02-21T12:56:51;4.72;;;1.77;;
63606;SDS011;71992;52.478;-1.918;2024-02-21T12:59:40;3.33;;;1.70;;
63606;SDS011;71992;52.478;-1.918;2024-02-21T13:02:30;3.67;;;1.45;;
63606;SDS011;71992;52.478;-1.918;2024-02-21T13:05:01;3.47;;;1.58;;
63606;SDS011;71992;52.478;-1.918;2024-02-21T13:07:31;2.08;;;1.15;;
63606;SDS011;71992;52.478;-1.918;2024-02-21T13:10:05;2.15;;;1.00;;
63606;SDS011;71992;52.478;-1.918;2024-02-21T13:12:55;1.65;;;0.98;;
63606;SDS011;71992;52.478;-1.918;2024-02-21T13:15:45;2.08;;;0.82;;
63606;SDS011;71992;52.478;-1.918;2024-02-21T13:18:34;2.00;;;1.05;;
63606;SDS011;71992;52.478;-1.918;2024-02-21T13:21:05;2.33;;;0.80;;
63606;SDS011;71992;52.478;-1.918;2024-02-21T13:23:54;1.65;;;0.80;;
63606;SDS011;71992;52.478;-1.918;2024-02-21T13:26:47;1.52;;;0.80;;
63606;SDS011;71992;52.478;-1.918;2024-02-21T13:29:36;0.80;;;0.65;;
63606;SDS011;71992;52.478;-1.918;2024-02-21T13:32:05;1.23;;;0.50;;
63606;SDS011;71992;52.478;-1.918;2024-02-21T13:34:58;0.73;;;0.70;;
63606;SDS011;71992;52.478;-1.918;2024-02-21T13:37:49;0.50;;;0.40;;
63606;SDS011;71992;52.478;-1.918;2024-02-21T13:40:39;1.45;;;0.50;;
63606;SDS011;71992;52.478;-1.918;2024-02-21T13:43:30;1.02;;;0.65;;
63606;SDS011;71992;52.478;-1.918;2024-02-21T13:46:20;0.63;;;0.52;;
63606;SDS011;71992;52.478;-1.918;2024-02-21T13:49:09;0.85;;;0.63;;
63606;SDS011;71992;52.478;-1.918;2024-02-21T13:51:39;0.80;;;0.55;;
63606;SDS011;71992;52.478;-1.918;2024-02-21T13:54:30;1.20;;;0.70;;
63606;SDS011;71992;52.478;-1.918;2024-02-21T13:57:20;0.47;;;0.40;;
63606;SDS011;71992;52.478;-1.918;2024-02-21T14:00:12;0.63;;;0.52;;
63606;SDS011;71992;52.478;-1.918;2024-02-21T14:03:04;0.57;;;0.50;;
63606;SDS011;71992;52.478;-1.918;2024-02-21T14:05:33;0.60;;;0.60;;
63606;SDS011;71992;52.478;-1.918;2024-02-21T14:08:23;1.42;;;0.50;;
63606;SDS011;71992;52.478;-1.918;2024-02-21T14:11:13;1.65;;;0.60;;
63606;SDS011;71992;52.478;-1.918;2024-02-21T14:13:43;1.25;;;0.63;;
63606;SDS011;71992;52.478;-1.918;2024-02-21T14:16:35;0.70;;;0.50;;
63606;SDS011;71992;52.478;-1.918;2024-02-21T14:19:24;0.75;;;0.57;;
63606;SDS011;71992;52.478;-1.918;2024-02-21T14:22:13;1.10;;;0.65;;
63606;SDS011;71992;52.478;-1.918;2024-02-21T14:25:03;0.45;;;0.45;;
63606;SDS011;71992;52.478;-1.918;2024-02-21T14:27:33;0.40;;;0.40;;
63606;SDS011;71992;52.478;-1.918;2024-02-21T14:30:22;0.47;;;0.40;;
63606;SDS011;71992;52.478;-1.918;2024-02-21T14:33:14;0.63;;;0.50;;
63606;SDS011;71992;52.478;-1.918;2024-02-21T14:36:04;0.40;;;0.40;;
63606;SDS011;71992;52.478;-1.918;2024-02-21T14:38:54;1.45;;;0.60;;
63606;SDS011;71992;52.478;-1.918;2024-02-21T14:41:25;0.40;;;0.40;;
63606;SDS011;71992;52.478;-1.918;2024-02-21T14:44:15;0.98;;;0.43;;
63606;SDS011;71992;52.478;-1.918;2024-02-21T14:46:45;0.30;;;0.30;;
63606;SDS011;71992;52.478;-1.918;2024-02-21T14:49:17;0.35;;;0.30;;
63606;SDS011;71992;52.478;-1.918;2024-02-21T14:51:47;0.35;;;0.35;;
63606;SDS011;71992;52.478;-1.918;2024-02-21T14:54:37;0.45;;;0.45;;
63606;SDS011;71992;52.478;-1.918;2024-02-21T14:57:30;0.30;;;0.30;;
63606;SDS011;71992;52.478;-1.918;2024-02-21T15:00:20;0.40;;;0.40;;
63606;SDS011;71992;52.478;-1.918;2024-02-21T15:03:15;0.30;;;0.30;;
63606;SDS011;71992;52.478;-1.918;2024-02-21T15:06:09;0.30;;;0.30;;
63606;SDS011;71992;52.478;-1.918;2024-02-21T15:09:01;0.80;;;0.40;;
63606;SDS011;71992;52.478;-1.918;2024-02-21T15:11:51;1.17;;;0.40;;
63606;SDS011;71992;52.478;-1.918;2024-02-21T15:14:41;0.30;;;0.30;;
63606;SDS011;71992;52.478;-1.918;2024-02-21T15:17:11;0.40;;;0.40;;
63606;SDS011;71992;52.478;-1.918;2024-02-21T15:20:01;0.45;;;0.38;;
63606;SDS011;71992;52.478;-1.918;2024-02-21T15:22:56;0.30;;;0.30;;
63606;SDS011;71992;52.478;-1.918;2024-02-21T15:28:36;0.25;;;0.25;;
63606;SDS011;71992;52.478;-1.918;2024-02-21T15:31:26;0.40;;;0.30;;
63606;SDS011;71992;52.478;-1.918;2024-02-21T15:33:55;0.65;;;0.30;;
63606;SDS011;71992;52.478;-1.918;2024-02-21T15:36:45;0.38;;;0.32;;
63606;SDS011;71992;52.478;-1.918;2024-02-21T15:39:37;0.73;;;0.35;;
63606;SDS011;71992;52.478;-1.918;2024-02-21T15:42:26;0.30;;;0.30;;
63606;SDS011;71992;52.478;-1.918;2024-02-21T15:44:57;0.40;;;0.30;;
63606;SDS011;71992;52.478;-1.918;2024-02-21T15:47:29;0.30;;;0.30;;
63606;SDS011;71992;52.478;-1.918;2024-02-21T15:49:58;0.50;;;0.40;;
63606;SDS011;71992;52.478;-1.918;2024-02-21T15:52:49;0.40;;;0.40;;
63606;SDS011;71992;52.478;-1.918;2024-02-21T15:55:41;1.48;;;0.40;;
63606;SDS011;71992;52.478;-1.918;2024-02-21T15:58:32;1.15;;;0.50;;
63606;SDS011;71992;52.478;-1.918;2024-02-21T16:01:21;0.60;;;0.50;;
63606;SDS011;71992;52.478;-1.918;2024-02-21T16:04:11;0.47;;;0.40;;
63606;SDS011;71992;52.478;-1.918;2024-02-21T16:07:01;0.35;;;0.35;;
63606;SDS011;71992;52.478;-1.918;2024-02-21T16:09:31;0.77;;;0.47;;
63606;SDS011;71992;52.478;-1.918;2024-02-21T16:12:23;2.50;;;0.60;;
63606;SDS011;71992;52.478;-1.918;2024-02-21T16:15:12;1.25;;;0.43;;
63606;SDS011;71992;52.478;-1.918;2024-02-21T16:18:02;0.40;;;0.40;;
63606;SDS011;71992;52.478;-1.918;2024-02-21T16:20:33;0.35;;;0.30;;